sensor_id;sensor_type;location;lat;lon;timestamp;temperature;humidity
43697;DHT22;29301;47.620;19.560;2023-02-28T00:00:25;0.10;52.90
43697;DHT22;29301;47.620;19.560;2023-02-28T00:02:50;0.10;52.90
43697;DHT22;29301;47.620;19.560;2023-02-28T00:05:17;0.10;52.90
43697;DHT22;29301;47.620;19.560;2023-02-28T00:07:43;0.10;52.90
43697;DHT22;29301;47.620;19.560;2023-02-28T00:10:09;0.20;53.00
43697;DHT22;29301;47.620;19.560;2023-02-28T00:12:35;0.20;53.00
43697;DHT22;29301;47.620;19.560;2023-02-28T00:15:01;0.20;53.00
43697;DHT22;29301;47.620;19.560;2023-02-28T00:17:27;0.20;53.20
43697;DHT22;29301;47.620;19.560;2023-02-28T00:19:52;0.30;53.30
43697;DHT22;29301;47.620;19.560;2023-02-28T00:22:19;0.20;53.30
43697;DHT22;29301;47.620;19.560;2023-02-28T00:24:45;0.20;53.50
43697;DHT22;29301;47.620;19.560;2023-02-28T00:27:11;0.30;53.60
43697;DHT22;29301;47.620;19.560;2023-02-28T00:29:37;0.30;53.60
43697;DHT22;29301;47.620;19.560;2023-02-28T00:32:02;0.40;53.70
43697;DHT22;29301;47.620;19.560;2023-02-28T00:34:28;0.40;53.50
43697;DHT22;29301;47.620;19.560;2023-02-28T00:36:54;0.40;53.60
43697;DHT22;29301;47.620;19.560;2023-02-28T00:39:19;0.40;53.80
43697;DHT22;29301;47.620;19.560;2023-02-28T00:41:45;0.40;53.80
43697;DHT22;29301;47.620;19.560;2023-02-28T00:44:10;0.40;53.70
43697;DHT22;29301;47.620;19.560;2023-02-28T00:46:36;0.40;53.70
43697;DHT22;29301;47.620;19.560;2023-02-28T00:49:01;0.50;53.50
43697;DHT22;29301;47.620;19.560;2023-02-28T00:51:27;0.40;53.30
43697;DHT22;29301;47.620;19.560;2023-02-28T00:53:53;0.40;53.20
43697;DHT22;29301;47.620;19.560;2023-02-28T00:56:19;0.50;53.10
43697;DHT22;29301;47.620;19.560;2023-02-28T00:58:44;0.40;52.70
43697;DHT22;29301;47.620;19.560;2023-02-28T01:01:10;0.40;52.50
43697;DHT22;29301;47.620;19.560;2023-02-28T01:03:35;0.40;52.60
43697;DHT22;29301;47.620;19.560;2023-02-28T01:06:01;0.30;52.70
43697;DHT22;29301;47.620;19.560;2023-02-28T01:08:27;0.30;52.80
43697;DHT22;29301;47.620;19.560;2023-02-28T01:10:53;0.40;53.10
43697;DHT22;29301;47.620;19.560;2023-02-28T01:13:19;0.40;53.10
43697;DHT22;29301;47.620;19.560;2023-02-28T01:15:46;0.40;53.00
43697;DHT22;29301;47.620;19.560;2023-02-28T01:18:13;0.40;53.00
43697;DHT22;29301;47.620;19.560;2023-02-28T01:20:39;0.50;53.00
43697;DHT22;29301;47.620;19.560;2023-02-28T01:23:04;0.50;52.90
43697;DHT22;29301;47.620;19.560;2023-02-28T01:25:30;0.50;52.90
43697;DHT22;29301;47.620;19.560;2023-02-28T01:27:55;0.50;52.90
43697;DHT22;29301;47.620;19.560;2023-02-28T01:30:21;0.50;52.90
43697;DHT22;29301;47.620;19.560;2023-02-28T01:32:47;0.50;53.00
43697;DHT22;29301;47.620;19.560;2023-02-28T01:35:12;0.40;53.00
43697;DHT22;29301;47.620;19.560;2023-02-28T01:37:38;0.40;53.10
43697;DHT22;29301;47.620;19.560;2023-02-28T01:40:03;0.40;53.00
43697;DHT22;29301;47.620;19.560;2023-02-28T01:42:29;0.40;53.10
43697;DHT22;29301;47.620;19.560;2023-02-28T01:47:20;0.40;53.40
43697;DHT22;29301;47.620;19.560;2023-02-28T01:49:47;0.40;53.70
43697;DHT22;29301;47.620;19.560;2023-02-28T01:52:14;0.30;53.80
43697;DHT22;29301;47.620;19.560;2023-02-28T01:54:44;0.40;54.00
43697;DHT22;29301;47.620;19.560;2023-02-28T01:57:12;0.50;54.10
43697;DHT22;29301;47.620;19.560;2023-02-28T01:59:43;0.50;54.20
43697;DHT22;29301;47.620;19.560;2023-02-28T02:02:17;0.50;54.10
43697;DHT22;29301;47.620;19.560;2023-02-28T02:05:00;0.50;54.20
43697;DHT22;29301;47.620;19.560;2023-02-28T02:07:29;0.50;54.20
43697;DHT22;29301;47.620;19.560;2023-02-28T02:10:06;0.60;54.30
43697;DHT22;29301;47.620;19.560;2023-02-28T02:15:03;0.40;54.90
43697;DHT22;29301;47.620;19.560;2023-02-28T02:17:40;0.50;54.80
43697;DHT22;29301;47.620;19.560;2023-02-28T02:30:31;0.70;54.20
43697;DHT22;29301;47.620;19.560;2023-02-28T02:43:29;0.90;53.60
43697;DHT22;29301;47.620;19.560;2023-02-28T02:48:59;0.80;53.40
43697;DHT22;29301;47.620;19.560;2023-02-28T02:51:26;0.80;53.70
43697;DHT22;29301;47.620;19.560;2023-02-28T02:54:00;0.80;53.90
43697;DHT22;29301;47.620;19.560;2023-02-28T02:56:28;0.80;53.90
43697;DHT22;29301;47.620;19.560;2023-02-28T02:58:54;0.80;53.80
43697;DHT22;29301;47.620;19.560;2023-02-28T03:01:22;0.80;53.90
43697;DHT22;29301;47.620;19.560;2023-02-28T03:03:57;0.90;54.10
43697;DHT22;29301;47.620;19.560;2023-02-28T03:06:24;1.00;54.00
43697;DHT22;29301;47.620;19.560;2023-02-28T03:08:49;1.00;54.10
43697;DHT22;29301;47.620;19.560;2023-02-28T03:11:15;1.00;54.20
43697;DHT22;29301;47.620;19.560;2023-02-28T03:13:48;1.00;54.10
43697;DHT22;29301;47.620;19.560;2023-02-28T03:16:33;1.10;53.80
43697;DHT22;29301;47.620;19.560;2023-02-28T03:21:32;1.20;53.30
43697;DHT22;29301;47.620;19.560;2023-02-28T03:24:07;1.20;53.20
43697;DHT22;29301;47.620;19.560;2023-02-28T03:26:35;1.20;53.30
43697;DHT22;29301;47.620;19.560;2023-02-28T03:29:13;1.20;53.20
43697;DHT22;29301;47.620;19.560;2023-02-28T03:31:50;1.20;53.20
43697;DHT22;29301;47.620;19.560;2023-02-28T03:34:19;1.20;52.90
43697;DHT22;29301;47.620;19.560;2023-02-28T03:36:48;1.20;52.80
43697;DHT22;29301;47.620;19.560;2023-02-28T03:39:19;1.20;53.00
43697;DHT22;29301;47.620;19.560;2023-02-28T03:41:51;1.20;52.90
43697;DHT22;29301;47.620;19.560;2023-02-28T03:44:21;1.20;52.80
43697;DHT22;29301;47.620;19.560;2023-02-28T03:46:49;1.20;52.50
43697;DHT22;29301;47.620;19.560;2023-02-28T03:49:18;1.20;52.60
43697;DHT22;29301;47.620;19.560;2023-02-28T03:51:45;1.10;52.60
43697;DHT22;29301;47.620;19.560;2023-02-28T03:54:23;1.20;53.00
43697;DHT22;29301;47.620;19.560;2023-02-28T03:56:57;1.10;53.40
43697;DHT22;29301;47.620;19.560;2023-02-28T04:01:52;1.20;53.60
43697;DHT22;29301;47.620;19.560;2023-02-28T04:04:18;1.20;53.40
43697;DHT22;29301;47.620;19.560;2023-02-28T04:06:44;1.30;53.30
43697;DHT22;29301;47.620;19.560;2023-02-28T04:09:11;1.30;53.20
43697;DHT22;29301;47.620;19.560;2023-02-28T04:11:41;1.30;53.10
43697;DHT22;29301;47.620;19.560;2023-02-28T04:14:08;1.30;53.00
43697;DHT22;29301;47.620;19.560;2023-02-28T04:16:34;1.40;52.90
43697;DHT22;29301;47.620;19.560;2023-02-28T04:19:01;1.30;52.80
43697;DHT22;29301;47.620;19.560;2023-02-28T04:21:30;1.40;52.80
43697;DHT22;29301;47.620;19.560;2023-02-28T04:23:56;1.40;52.80
43697;DHT22;29301;47.620;19.560;2023-02-28T04:26:29;1.40;52.70
43697;DHT22;29301;47.620;19.560;2023-02-28T04:28:55;1.40;52.60
43697;DHT22;29301;47.620;19.560;2023-02-28T04:31:21;1.40;52.80
43697;DHT22;29301;47.620;19.560;2023-02-28T04:33:46;1.30;52.20
43697;DHT22;29301;47.620;19.560;2023-02-28T04:36:12;1.20;52.50
43697;DHT22;29301;47.620;19.560;2023-02-28T04:38:39;1.20;52.80
43697;DHT22;29301;47.620;19.560;2023-02-28T04:41:05;1.20;53.00
43697;DHT22;29301;47.620;19.560;2023-02-28T04:43:31;1.30;52.90
43697;DHT22;29301;47.620;19.560;2023-02-28T04:45:58;1.30;52.60
43697;DHT22;29301;47.620;19.560;2023-02-28T04:48:24;1.30;52.60
43697;DHT22;29301;47.620;19.560;2023-02-28T04:50:50;1.40;52.70
43697;DHT22;29301;47.620;19.560;2023-02-28T04:53:16;1.40;52.70
43697;DHT22;29301;47.620;19.560;2023-02-28T04:55:41;1.30;52.70
43697;DHT22;29301;47.620;19.560;2023-02-28T04:58:07;1.30;52.80
43697;DHT22;29301;47.620;19.560;2023-02-28T05:00:32;1.30;52.90
43697;DHT22;29301;47.620;19.560;2023-02-28T05:02:58;1.30;53.00
43697;DHT22;29301;47.620;19.560;2023-02-28T05:05:23;1.30;53.10
43697;DHT22;29301;47.620;19.560;2023-02-28T05:07:49;1.30;53.30
43697;DHT22;29301;47.620;19.560;2023-02-28T05:10:14;1.10;54.20
43697;DHT22;29301;47.620;19.560;2023-02-28T05:12:40;1.00;54.70
43697;DHT22;29301;47.620;19.560;2023-02-28T05:15:05;1.00;54.80
43697;DHT22;29301;47.620;19.560;2023-02-28T05:17:31;1.10;55.10
43697;DHT22;29301;47.620;19.560;2023-02-28T05:19:57;1.10;55.30
43697;DHT22;29301;47.620;19.560;2023-02-28T05:22:22;1.20;55.80
43697;DHT22;29301;47.620;19.560;2023-02-28T05:24:48;1.20;56.10
43697;DHT22;29301;47.620;19.560;2023-02-28T05:27:13;1.10;56.20
43697;DHT22;29301;47.620;19.560;2023-02-28T05:29:39;1.10;56.40
43697;DHT22;29301;47.620;19.560;2023-02-28T05:32:11;1.20;56.40
43697;DHT22;29301;47.620;19.560;2023-02-28T05:34:37;1.20;56.10
43697;DHT22;29301;47.620;19.560;2023-02-28T05:37:03;1.20;55.90
43697;DHT22;29301;47.620;19.560;2023-02-28T05:39:29;1.30;55.80
43697;DHT22;29301;47.620;19.560;2023-02-28T05:41:54;1.30;55.60
43697;DHT22;29301;47.620;19.560;2023-02-28T05:44:20;1.30;55.60
43697;DHT22;29301;47.620;19.560;2023-02-28T05:46:45;1.40;55.50
43697;DHT22;29301;47.620;19.560;2023-02-28T05:49:11;1.40;55.40
43697;DHT22;29301;47.620;19.560;2023-02-28T05:51:36;1.40;55.50
43697;DHT22;29301;47.620;19.560;2023-02-28T05:54:05;1.30;55.60
43697;DHT22;29301;47.620;19.560;2023-02-28T05:56:30;1.30;55.80
43697;DHT22;29301;47.620;19.560;2023-02-28T05:58:56;1.30;55.90
43697;DHT22;29301;47.620;19.560;2023-02-28T06:01:23;1.20;56.10
43697;DHT22;29301;47.620;19.560;2023-02-28T06:03:49;1.20;55.80
43697;DHT22;29301;47.620;19.560;2023-02-28T06:06:15;1.30;55.40
43697;DHT22;29301;47.620;19.560;2023-02-28T06:08:41;1.20;55.00
43697;DHT22;29301;47.620;19.560;2023-02-28T06:11:08;1.20;55.00
43697;DHT22;29301;47.620;19.560;2023-02-28T06:13:34;1.20;54.50
43697;DHT22;29301;47.620;19.560;2023-02-28T06:16:03;1.20;54.60
43697;DHT22;29301;47.620;19.560;2023-02-28T06:18:28;1.10;54.90
43697;DHT22;29301;47.620;19.560;2023-02-28T06:20:54;1.10;55.30
43697;DHT22;29301;47.620;19.560;2023-02-28T06:23:21;1.20;55.20
43697;DHT22;29301;47.620;19.560;2023-02-28T06:25:46;1.20;55.10
43697;DHT22;29301;47.620;19.560;2023-02-28T06:28:12;1.20;54.90
43697;DHT22;29301;47.620;19.560;2023-02-28T06:30:38;1.30;54.80
43697;DHT22;29301;47.620;19.560;2023-02-28T06:33:03;1.40;54.80
43697;DHT22;29301;47.620;19.560;2023-02-28T06:35:29;1.30;54.70
43697;DHT22;29301;47.620;19.560;2023-02-28T06:37:54;1.30;55.10
43697;DHT22;29301;47.620;19.560;2023-02-28T06:40:20;1.30;55.30
43697;DHT22;29301;47.620;19.560;2023-02-28T06:42:46;1.30;55.30
43697;DHT22;29301;47.620;19.560;2023-02-28T06:45:11;1.40;55.20
43697;DHT22;29301;47.620;19.560;2023-02-28T06:47:38;1.40;55.30
43697;DHT22;29301;47.620;19.560;2023-02-28T06:50:04;1.50;54.60
43697;DHT22;29301;47.620;19.560;2023-02-28T06:52:30;1.60;54.40
43697;DHT22;29301;47.620;19.560;2023-02-28T06:54:55;1.70;54.20
43697;DHT22;29301;47.620;19.560;2023-02-28T06:57:35;1.70;53.70
43697;DHT22;29301;47.620;19.560;2023-02-28T07:00:01;1.80;53.00
43697;DHT22;29301;47.620;19.560;2023-02-28T07:02:28;1.80;52.60
43697;DHT22;29301;47.620;19.560;2023-02-28T07:04:53;1.90;52.20
43697;DHT22;29301;47.620;19.560;2023-02-28T07:07:19;1.90;52.10
43697;DHT22;29301;47.620;19.560;2023-02-28T07:09:44;1.90;51.40
43697;DHT22;29301;47.620;19.560;2023-02-28T07:12:10;1.90;51.00
43697;DHT22;29301;47.620;19.560;2023-02-28T07:14:36;1.90;50.50
43697;DHT22;29301;47.620;19.560;2023-02-28T07:17:02;1.90;50.40
43697;DHT22;29301;47.620;19.560;2023-02-28T07:19:27;1.90;50.10
43697;DHT22;29301;47.620;19.560;2023-02-28T07:21:53;2.00;50.20
43697;DHT22;29301;47.620;19.560;2023-02-28T07:24:18;2.00;50.10
43697;DHT22;29301;47.620;19.560;2023-02-28T07:26:44;2.10;50.00
43697;DHT22;29301;47.620;19.560;2023-02-28T07:29:10;2.20;49.10
43697;DHT22;29301;47.620;19.560;2023-02-28T07:31:35;2.20;48.70
43697;DHT22;29301;47.620;19.560;2023-02-28T07:34:01;2.20;48.80
43697;DHT22;29301;47.620;19.560;2023-02-28T07:36:27;2.20;48.60
43697;DHT22;29301;47.620;19.560;2023-02-28T07:38:53;2.20;48.20
43697;DHT22;29301;47.620;19.560;2023-02-28T07:41:21;2.20;48.10
43697;DHT22;29301;47.620;19.560;2023-02-28T07:43:47;2.30;48.00
43697;DHT22;29301;47.620;19.560;2023-02-28T07:46:14;2.30;48.00
43697;DHT22;29301;47.620;19.560;2023-02-28T07:48:43;2.30;47.80
43697;DHT22;29301;47.620;19.560;2023-02-28T07:51:09;2.30;47.50
43697;DHT22;29301;47.620;19.560;2023-02-28T07:53:34;2.30;47.50
43697;DHT22;29301;47.620;19.560;2023-02-28T07:56:01;2.30;47.60
43697;DHT22;29301;47.620;19.560;2023-02-28T07:58:27;2.40;47.70
43697;DHT22;29301;47.620;19.560;2023-02-28T08:00:53;2.40;47.30
43697;DHT22;29301;47.620;19.560;2023-02-28T08:03:19;2.40;47.20
43697;DHT22;29301;47.620;19.560;2023-02-28T08:05:45;2.50;47.30
43697;DHT22;29301;47.620;19.560;2023-02-28T08:08:10;2.60;47.30
43697;DHT22;29301;47.620;19.560;2023-02-28T08:10:36;2.60;47.00
43697;DHT22;29301;47.620;19.560;2023-02-28T08:13:01;2.60;46.70
43697;DHT22;29301;47.620;19.560;2023-02-28T08:15:27;2.60;46.60
43697;DHT22;29301;47.620;19.560;2023-02-28T08:17:53;2.70;47.20
43697;DHT22;29301;47.620;19.560;2023-02-28T08:20:18;2.80;46.80
43697;DHT22;29301;47.620;19.560;2023-02-28T08:22:44;2.80;46.40
43697;DHT22;29301;47.620;19.560;2023-02-28T08:25:10;2.90;46.10
43697;DHT22;29301;47.620;19.560;2023-02-28T08:27:36;2.90;45.70
43697;DHT22;29301;47.620;19.560;2023-02-28T08:30:02;2.90;45.70
43697;DHT22;29301;47.620;19.560;2023-02-28T08:32:28;3.00;46.10
43697;DHT22;29301;47.620;19.560;2023-02-28T08:34:53;3.10;46.00
43697;DHT22;29301;47.620;19.560;2023-02-28T08:37:19;3.10;45.40
43697;DHT22;29301;47.620;19.560;2023-02-28T08:39:45;3.20;45.00
43697;DHT22;29301;47.620;19.560;2023-02-28T08:42:11;3.20;45.00
43697;DHT22;29301;47.620;19.560;2023-02-28T08:44:36;3.20;44.90
43697;DHT22;29301;47.620;19.560;2023-02-28T08:47:02;3.30;44.70
43697;DHT22;29301;47.620;19.560;2023-02-28T08:49:27;3.30;44.80
43697;DHT22;29301;47.620;19.560;2023-02-28T08:51:53;3.40;45.20
43697;DHT22;29301;47.620;19.560;2023-02-28T08:54:20;3.50;44.80
43697;DHT22;29301;47.620;19.560;2023-02-28T08:56:46;3.60;45.00
43697;DHT22;29301;47.620;19.560;2023-02-28T08:59:12;3.70;44.90
43697;DHT22;29301;47.620;19.560;2023-02-28T09:01:38;3.60;43.90
43697;DHT22;29301;47.620;19.560;2023-02-28T09:04:03;3.70;43.40
43697;DHT22;29301;47.620;19.560;2023-02-28T09:06:29;3.80;43.00
43697;DHT22;29301;47.620;19.560;2023-02-28T09:08:58;3.90;43.30
43697;DHT22;29301;47.620;19.560;2023-02-28T09:11:24;4.00;42.70
43697;DHT22;29301;47.620;19.560;2023-02-28T09:13:50;4.10;42.40
43697;DHT22;29301;47.620;19.560;2023-02-28T09:16:15;4.30;42.20
43697;DHT22;29301;47.620;19.560;2023-02-28T09:18:41;4.40;41.80
43697;DHT22;29301;47.620;19.560;2023-02-28T09:21:07;4.40;41.70
43697;DHT22;29301;47.620;19.560;2023-02-28T09:23:33;4.40;41.70
43697;DHT22;29301;47.620;19.560;2023-02-28T09:25:59;4.30;41.20
43697;DHT22;29301;47.620;19.560;2023-02-28T09:28:24;4.20;41.40
43697;DHT22;29301;47.620;19.560;2023-02-28T09:30:51;4.20;41.90
43697;DHT22;29301;47.620;19.560;2023-02-28T09:33:17;4.20;41.60
43697;DHT22;29301;47.620;19.560;2023-02-28T09:35:46;4.10;41.70
43697;DHT22;29301;47.620;19.560;2023-02-28T09:38:11;4.10;42.00
43697;DHT22;29301;47.620;19.560;2023-02-28T09:40:50;4.20;42.00
43697;DHT22;29301;47.620;19.560;2023-02-28T09:43:17;4.20;42.10
43697;DHT22;29301;47.620;19.560;2023-02-28T09:45:45;4.30;42.50
43697;DHT22;29301;47.620;19.560;2023-02-28T09:48:17;4.50;42.30
43697;DHT22;29301;47.620;19.560;2023-02-28T09:50:48;4.50;42.40
43697;DHT22;29301;47.620;19.560;2023-02-28T09:53:28;4.60;42.10
43697;DHT22;29301;47.620;19.560;2023-02-28T09:56:20;4.60;41.80
43697;DHT22;29301;47.620;19.560;2023-02-28T10:03:43;4.90;42.00
43697;DHT22;29301;47.620;19.560;2023-02-28T10:06:19;4.90;41.00
43697;DHT22;29301;47.620;19.560;2023-02-28T10:09:05;4.90;41.10
43697;DHT22;29301;47.620;19.560;2023-02-28T10:11:34;5.00;41.70
43697;DHT22;29301;47.620;19.560;2023-02-28T10:14:02;5.30;41.20
43697;DHT22;29301;47.620;19.560;2023-02-28T10:16:33;5.60;40.80
43697;DHT22;29301;47.620;19.560;2023-02-28T10:19:04;5.80;39.60
43697;DHT22;29301;47.620;19.560;2023-02-28T10:21:38;5.70;38.80
43697;DHT22;29301;47.620;19.560;2023-02-28T10:24:11;5.70;39.20
43697;DHT22;29301;47.620;19.560;2023-02-28T10:26:38;5.80;39.10
43697;DHT22;29301;47.620;19.560;2023-02-28T10:29:04;5.90;39.20
43697;DHT22;29301;47.620;19.560;2023-02-28T10:31:30;5.90;38.90
43697;DHT22;29301;47.620;19.560;2023-02-28T10:33:55;5.90;38.80
43697;DHT22;29301;47.620;19.560;2023-02-28T10:36:21;6.10;39.00
43697;DHT22;29301;47.620;19.560;2023-02-28T10:38:47;6.40;38.90
43697;DHT22;29301;47.620;19.560;2023-02-28T10:43:39;6.90;37.20
43697;DHT22;29301;47.620;19.560;2023-02-28T10:48:34;7.10;37.40
43697;DHT22;29301;47.620;19.560;2023-02-28T10:51:01;7.30;37.20
43697;DHT22;29301;47.620;19.560;2023-02-28T10:54:00;7.40;37.10
43697;DHT22;29301;47.620;19.560;2023-02-28T10:56:20;7.20;37.20
43697;DHT22;29301;47.620;19.560;2023-02-28T11:03:45;7.30;37.50
43697;DHT22;29301;47.620;19.560;2023-02-28T11:06:18;7.30;37.10
43697;DHT22;29301;47.620;19.560;2023-02-28T11:08:54;7.20;37.00
43697;DHT22;29301;47.620;19.560;2023-02-28T11:11:21;7.00;37.00
43697;DHT22;29301;47.620;19.560;2023-02-28T11:13:50;6.80;37.40
43697;DHT22;29301;47.620;19.560;2023-02-28T11:16:16;6.90;37.80
43697;DHT22;29301;47.620;19.560;2023-02-28T11:18:52;6.90;37.30
43697;DHT22;29301;47.620;19.560;2023-02-28T11:21:27;6.80;37.40
43697;DHT22;29301;47.620;19.560;2023-02-28T11:24:04;6.80;37.90
43697;DHT22;29301;47.620;19.560;2023-02-28T11:26:43;6.80;38.10
43697;DHT22;29301;47.620;19.560;2023-02-28T11:29:16;6.90;38.40
43697;DHT22;29301;47.620;19.560;2023-02-28T11:31:42;6.90;38.00
43697;DHT22;29301;47.620;19.560;2023-02-28T11:34:24;6.90;37.90
43697;DHT22;29301;47.620;19.560;2023-02-28T11:36:51;6.90;37.70
43697;DHT22;29301;47.620;19.560;2023-02-28T11:39:17;6.80;38.00
43697;DHT22;29301;47.620;19.560;2023-02-28T11:51:59;7.00;38.00
43697;DHT22;29301;47.620;19.560;2023-02-28T12:02:20;6.40;40.40
43697;DHT22;29301;47.620;19.560;2023-02-28T12:07:18;6.60;40.00
43697;DHT22;29301;47.620;19.560;2023-02-28T12:27:33;6.70;40.50
43697;DHT22;29301;47.620;19.560;2023-02-28T12:30:04;6.70;40.50
43697;DHT22;29301;47.620;19.560;2023-02-28T12:32:32;6.50;40.40
43697;DHT22;29301;47.620;19.560;2023-02-28T12:37:36;6.30;40.50
43697;DHT22;29301;47.620;19.560;2023-02-28T12:40:09;6.30;41.10
43697;DHT22;29301;47.620;19.560;2023-02-28T12:42:40;6.30;41.20
43697;DHT22;29301;47.620;19.560;2023-02-28T12:45:19;6.00;41.60
43697;DHT22;29301;47.620;19.560;2023-02-28T12:47:46;6.10;42.30
43697;DHT22;29301;47.620;19.560;2023-02-28T12:50:13;6.20;42.30
43697;DHT22;29301;47.620;19.560;2023-02-28T13:00:54;6.50;41.90
43697;DHT22;29301;47.620;19.560;2023-02-28T13:11:28;6.40;41.30
43697;DHT22;29301;47.620;19.560;2023-02-28T13:13:58;6.30;41.40
43697;DHT22;29301;47.620;19.560;2023-02-28T13:16:24;6.30;41.70
43697;DHT22;29301;47.620;19.560;2023-02-28T13:18:49;6.20;41.80
43697;DHT22;29301;47.620;19.560;2023-02-28T13:21:26;6.20;42.10
43697;DHT22;29301;47.620;19.560;2023-02-28T13:34:19;6.60;41.50
43697;DHT22;29301;47.620;19.560;2023-02-28T13:36:46;6.60;41.40
43697;DHT22;29301;47.620;19.560;2023-02-28T13:41:56;6.60;41.60
43697;DHT22;29301;47.620;19.560;2023-02-28T13:44:22;6.60;41.70
43697;DHT22;29301;47.620;19.560;2023-02-28T13:54:18;6.60;41.80
43697;DHT22;29301;47.620;19.560;2023-02-28T13:56:57;6.50;42.10
43697;DHT22;29301;47.620;19.560;2023-02-28T13:59:29;6.60;42.50
43697;DHT22;29301;47.620;19.560;2023-02-28T14:02:01;6.60;42.30
43697;DHT22;29301;47.620;19.560;2023-02-28T14:06:54;6.70;42.50
43697;DHT22;29301;47.620;19.560;2023-02-28T14:11:46;6.60;42.30
43697;DHT22;29301;47.620;19.560;2023-02-28T14:16:56;6.60;42.30
43697;DHT22;29301;47.620;19.560;2023-02-28T14:19:26;6.60;42.20
43697;DHT22;29301;47.620;19.560;2023-02-28T14:21:59;6.60;42.10
43697;DHT22;29301;47.620;19.560;2023-02-28T14:27:21;6.60;42.30
43697;DHT22;29301;47.620;19.560;2023-02-28T14:37:29;6.70;42.40
43697;DHT22;29301;47.620;19.560;2023-02-28T14:39:56;6.80;42.50
43697;DHT22;29301;47.620;19.560;2023-02-28T14:42:33;6.70;42.30
43697;DHT22;29301;47.620;19.560;2023-02-28T14:44:59;6.70;42.50
43697;DHT22;29301;47.620;19.560;2023-02-28T14:47:27;6.60;42.60
43697;DHT22;29301;47.620;19.560;2023-02-28T14:49:53;6.60;42.80
43697;DHT22;29301;47.620;19.560;2023-02-28T14:52:21;6.60;43.00
43697;DHT22;29301;47.620;19.560;2023-02-28T14:54:51;6.60;43.20
43697;DHT22;29301;47.620;19.560;2023-02-28T14:57:28;6.70;43.40
43697;DHT22;29301;47.620;19.560;2023-02-28T15:02:38;6.70;43.40
43697;DHT22;29301;47.620;19.560;2023-02-28T15:07:35;6.50;43.60
43697;DHT22;29301;47.620;19.560;2023-02-28T15:10:08;6.60;43.80
43697;DHT22;29301;47.620;19.560;2023-02-28T15:12:35;6.60;43.70
43697;DHT22;29301;47.620;19.560;2023-02-28T15:15:00;6.60;43.80
43697;DHT22;29301;47.620;19.560;2023-02-28T15:17:26;6.60;44.10
43697;DHT22;29301;47.620;19.560;2023-02-28T15:19:52;6.50;44.30
43697;DHT22;29301;47.620;19.560;2023-02-28T15:22:20;6.50;44.40
43697;DHT22;29301;47.620;19.560;2023-02-28T15:24:50;6.50;44.60
43697;DHT22;29301;47.620;19.560;2023-02-28T15:27:20;6.50;44.80
43697;DHT22;29301;47.620;19.560;2023-02-28T15:29:47;6.50;44.90
43697;DHT22;29301;47.620;19.560;2023-02-28T15:34:57;6.40;45.00
43697;DHT22;29301;47.620;19.560;2023-02-28T15:40:04;6.20;45.40
43697;DHT22;29301;47.620;19.560;2023-02-28T15:42:30;6.10;45.50
43697;DHT22;29301;47.620;19.560;2023-02-28T15:44:56;6.10;45.60
43697;DHT22;29301;47.620;19.560;2023-02-28T15:47:26;6.10;45.60
43697;DHT22;29301;47.620;19.560;2023-02-28T15:49:57;6.10;46.00
43697;DHT22;29301;47.620;19.560;2023-02-28T15:52:26;6.10;46.00
43697;DHT22;29301;47.620;19.560;2023-02-28T15:54:53;6.10;46.00
43697;DHT22;29301;47.620;19.560;2023-02-28T15:57:20;6.00;46.30
43697;DHT22;29301;47.620;19.560;2023-02-28T15:59:53;5.90;46.40
43697;DHT22;29301;47.620;19.560;2023-02-28T16:02:20;5.90;46.50
43697;DHT22;29301;47.620;19.560;2023-02-28T16:07:21;5.90;46.80
43697;DHT22;29301;47.620;19.560;2023-02-28T16:09:47;5.90;46.90
43697;DHT22;29301;47.620;19.560;2023-02-28T16:12:13;5.90;47.00
43697;DHT22;29301;47.620;19.560;2023-02-28T16:14:39;5.80;47.00
43697;DHT22;29301;47.620;19.560;2023-02-28T16:17:06;5.70;47.10
43697;DHT22;29301;47.620;19.560;2023-02-28T16:19:34;5.80;47.10
43697;DHT22;29301;47.620;19.560;2023-02-28T16:22:00;5.80;47.10
43697;DHT22;29301;47.620;19.560;2023-02-28T16:24:26;5.80;47.20
43697;DHT22;29301;47.620;19.560;2023-02-28T16:26:52;5.80;47.20
43697;DHT22;29301;47.620;19.560;2023-02-28T16:29:25;5.70;47.30
43697;DHT22;29301;47.620;19.560;2023-02-28T16:31:52;5.70;47.30
43697;DHT22;29301;47.620;19.560;2023-02-28T16:34:18;5.80;47.30
43697;DHT22;29301;47.620;19.560;2023-02-28T16:36:46;5.80;47.20
43697;DHT22;29301;47.620;19.560;2023-02-28T16:39:11;5.50;47.20
43697;DHT22;29301;47.620;19.560;2023-02-28T16:41:37;5.50;47.70
43697;DHT22;29301;47.620;19.560;2023-02-28T16:44:03;5.50;47.80
43697;DHT22;29301;47.620;19.560;2023-02-28T16:46:34;5.50;47.90
43697;DHT22;29301;47.620;19.560;2023-02-28T16:49:00;5.40;48.10
43697;DHT22;29301;47.620;19.560;2023-02-28T16:51:26;5.40;48.30
43697;DHT22;29301;47.620;19.560;2023-02-28T16:53:51;5.30;48.40
43697;DHT22;29301;47.620;19.560;2023-02-28T16:56:18;5.20;48.50
43697;DHT22;29301;47.620;19.560;2023-02-28T16:58:44;5.20;48.80
43697;DHT22;29301;47.620;19.560;2023-02-28T17:01:10;5.20;49.00
43697;DHT22;29301;47.620;19.560;2023-02-28T17:03:36;5.10;49.40
43697;DHT22;29301;47.620;19.560;2023-02-28T17:06:02;5.10;50.00
43697;DHT22;29301;47.620;19.560;2023-02-28T17:08:28;5.00;50.30
43697;DHT22;29301;47.620;19.560;2023-02-28T17:10:55;5.00;50.30
43697;DHT22;29301;47.620;19.560;2023-02-28T17:13:20;5.10;50.30
43697;DHT22;29301;47.620;19.560;2023-02-28T17:15:46;5.20;50.00
43697;DHT22;29301;47.620;19.560;2023-02-28T17:18:16;5.20;50.00
43697;DHT22;29301;47.620;19.560;2023-02-28T17:20:44;5.30;49.90
43697;DHT22;29301;47.620;19.560;2023-02-28T17:23:10;5.30;49.70
43697;DHT22;29301;47.620;19.560;2023-02-28T17:25:36;5.40;49.50
43697;DHT22;29301;47.620;19.560;2023-02-28T17:28:01;5.30;49.60
43697;DHT22;29301;47.620;19.560;2023-02-28T17:30:27;5.30;49.90
43697;DHT22;29301;47.620;19.560;2023-02-28T17:32:53;5.30;50.00
43697;DHT22;29301;47.620;19.560;2023-02-28T17:35:18;5.30;50.50
43697;DHT22;29301;47.620;19.560;2023-02-28T17:37:44;5.30;50.60
43697;DHT22;29301;47.620;19.560;2023-02-28T17:40:16;5.30;50.60
43697;DHT22;29301;47.620;19.560;2023-02-28T17:42:43;5.30;50.30
43697;DHT22;29301;47.620;19.560;2023-02-28T17:45:08;5.40;50.20
43697;DHT22;29301;47.620;19.560;2023-02-28T17:47:34;5.40;50.40
43697;DHT22;29301;47.620;19.560;2023-02-28T17:49:59;5.50;50.40
43697;DHT22;29301;47.620;19.560;2023-02-28T17:52:25;5.50;50.20
43697;DHT22;29301;47.620;19.560;2023-02-28T17:54:50;5.50;50.50
43697;DHT22;29301;47.620;19.560;2023-02-28T17:57:16;5.50;50.70
43697;DHT22;29301;47.620;19.560;2023-02-28T17:59:42;5.50;50.70
43697;DHT22;29301;47.620;19.560;2023-02-28T18:02:13;5.60;50.60
43697;DHT22;29301;47.620;19.560;2023-02-28T18:04:40;5.60;50.60
43697;DHT22;29301;47.620;19.560;2023-02-28T18:07:06;5.60;50.40
43697;DHT22;29301;47.620;19.560;2023-02-28T18:09:34;5.60;50.60